Buzaubaj, Uzbekistan
Current Conditions -  °F | °C
As of 1:30 AM on Friday 19 Dec 2014 (Local Time) from UTNU Reporting Station
Haze Haze  
Wind Chill: 19°   Ceiling: Unl
Heat Index: 19°   Visibility: 2.5mi
Dew Point: 18°   Wind: 0mph
Humidity: 93%   Direction: NA
Pressure: 30.27"   Gusts: NA
Location:  41.75°N, 62.47°E
Report Text: UTNU 182030Z 00000KT 4100 BR NSC M07/M08 Q1025 R31/CLRD70NOSIG
Loading
Personal Weather Stations






























Interactive Weather Map New forecast layout! Learn more

10-Day Weather Forecast

Advertisements
Track Severe Weather on mobile